Time;durP1;ratioP1;P1;durP2;ratioP2;P2;SDS_P1;SDS_P2;PMS_P1;PMS_P2;Temp;Humidity;BMP_temperature;BMP_pressure;BME280_temperature;BME280_humidity;BME280_pressure;Samples;Min_cycle;Max_cycle;Signal;HPM_P1;HPM_P2
2022/07/28 00:01:46;;;;;;;2.45;2.25;;;21.60;95.20;;;;;;4965519;28;20035;-70
2022/07/28 00:04:12;;;;;;;2.67;2.30;;;21.60;95.70;;;;;;4969988;28;21013;-72
2022/07/28 00:06:37;;;;;;;2.90;2.55;;;21.50;96.50;;;;;;4968145;28;20034;-70
2022/07/28 00:09:03;;;;;;;8.90;2.70;;;21.40;97.30;;;;;;4966768;28;20128;-69
2022/07/28 00:11:29;;;;;;;2.63;2.42;;;21.30;97.80;;;;;;4967619;28;20715;-69
2022/07/28 00:13:54;;;;;;;3.22;2.92;;;21.20;98.50;;;;;;4971345;28;20034;-70
2022/07/28 00:16:20;;;;;;;2.92;2.40;;;21.20;98.90;;;;;;4966790;28;20495;-69
2022/07/28 00:18:46;;;;;;;3.83;2.40;;;21.20;98.90;;;;;;4975821;28;20042;-69
2022/07/28 00:21:12;;;;;;;2.70;2.50;;;21.10;98.90;;;;;;4971470;28;20042;-69
2022/07/28 00:23:38;;;;;;;3.40;2.70;;;21.10;99.30;;;;;;4971059;28;20136;-70
2022/07/28 00:26:04;;;;;;;2.65;2.45;;;21.10;99.40;;;;;;4971191;28;20101;-70
2022/07/28 00:28:29;;;;;;;2.88;2.50;;;21.00;99.90;;;;;;4970378;28;20049;-70
2022/07/28 00:30:55;;;;;;;2.90;2.47;;;21.00;99.90;;;;;;4958809;28;20062;-69
2022/07/28 00:33:21;;;;;;;3.13;2.80;;;20.90;99.90;;;;;;4974687;28;20140;-69
2022/07/28 00:35:46;;;;;;;3.13;2.80;;;20.90;99.90;;;;;;4962452;28;20046;-69
2022/07/28 00:38:12;;;;;;;2.85;2.65;;;21.00;99.90;;;;;;4973101;28;20034;-70
2022/07/28 00:43:22;;;;;;;2.90;2.70;;;21.00;99.90;;;;;;4972780;28;20109;-70
2022/07/28 00:45:47;;;;;;;5.75;3.00;;;20.90;99.90;;;;;;4969410;28;20038;-70
2022/07/28 00:48:13;;;;;;;4.20;2.42;;;20.90;99.90;;;;;;4972456;28;20638;-70
2022/07/28 00:50:39;;;;;;;3.65;2.88;;;20.90;99.90;;;;;;4973250;28;20049;-72
2022/07/28 00:53:06;;;;;;;3.05;2.83;;;20.90;99.90;;;;;;4976476;28;20159;-72
2022/07/28 00:55:32;;;;;;;6.53;2.70;;;20.90;99.90;;;;;;4976083;28;20066;-71
2022/07/28 00:57:58;;;;;;;4.28;2.50;;;20.90;99.90;;;;;;4974099;28;20125;-71
2022/07/28 01:00:24;;;;;;;5.10;3.45;;;20.90;99.90;;;;;;4970696;28;20038;-71
2022/07/28 01:02:50;;;;;;;4.43;2.50;;;20.90;99.90;;;;;;4961832;28;20073;-71
2022/07/28 01:05:16;;;;;;;5.88;2.80;;;20.90;99.90;;;;;;4965959;28;20061;-71
2022/07/28 01:07:48;;;;;;;5.65;2.75;;;20.90;99.90;;;;;;4974581;28;20131;-70
2022/07/28 01:10:51;;;;;;;2.38;2.17;;;20.90;99.90;;;;;;4975908;28;20468;-71
2022/07/28 01:13:37;;;;;;;13.68;3.20;;;20.90;99.90;;;;;;4972742;28;20053;-66
2022/07/28 01:16:05;;;;;;;2.42;2.22;;;20.90;99.90;;;;;;4973129;28;20022;-66
2022/07/28 01:18:59;;;;;;;2.92;2.30;;;20.90;99.90;;;;;;4966080;28;20224;-66
2022/07/28 01:21:32;;;;;;;3.08;2.50;;;20.80;99.90;;;;;;4960394;28;20073;-67
2022/07/28 01:24:09;;;;;;;5.60;2.70;;;20.80;99.90;;;;;;4974860;28;20026;-67
2022/07/28 01:26:53;;;;;;;4.63;2.50;;;20.80;99.90;;;;;;4976156;28;20033;-67
2022/07/28 01:29:43;;;;;;;2.58;2.38;;;20.80;99.90;;;;;;4975912;28;20385;-67
2022/07/28 01:32:19;;;;;;;3.03;2.78;;;20.80;99.90;;;;;;4974807;28;20550;-67
2022/07/28 01:34:59;;;;;;;2.42;2.20;;;20.80;99.90;;;;;;4967314;28;20137;-67
2022/07/28 01:37:27;;;;;;;2.78;2.47;;;20.90;99.90;;;;;;4974510;28;20372;-67
2022/07/28 01:40:03;;;;;;;3.90;2.80;;;20.90;99.90;;;;;;4968047;28;20085;-66
2022/07/28 01:42:36;;;;;;;2.67;2.17;;;20.70;99.90;;;;;;4974450;28;20121;-67
2022/07/28 01:45:03;;;;;;;;;;;20.60;99.90;;;;;;4977444;28;20041;-66
2022/07/28 01:47:30;;;;;;;2.90;2.47;;;20.60;99.90;;;;;;4979280;28;19989;-66
2022/07/28 01:49:59;;;;;;;2.88;2.65;;;20.50;99.90;;;;;;4957045;28;20046;-67
2022/07/28 01:52:26;;;;;;;2.75;2.55;;;20.50;99.90;;;;;;4972768;28;20057;-66
2022/07/28 01:54:53;;;;;;;3.70;2.70;;;20.40;99.90;;;;;;4976795;28;20038;-67
2022/07/28 01:57:20;;;;;;;2.92;2.72;;;20.40;99.90;;;;;;4979001;28;20050;-67
2022/07/28 01:59:47;;;;;;;2.65;2.45;;;20.40;99.90;;;;;;4977770;28;20555;-67
2022/07/28 02:02:16;;;;;;;2.83;2.50;;;20.40;99.90;;;;;;4974945;28;20039;-66
2022/07/28 02:04:43;;;;;;;2.30;2.10;;;20.50;99.90;;;;;;4973781;28;20171;-66
2022/07/28 02:07:11;;;;;;;2.78;2.58;;;20.50;99.90;;;;;;4960457;28;20177;-66
2022/07/28 02:09:37;;;;;;;2.38;2.17;;;20.60;99.90;;;;;;4971352;28;20054;-67
2022/07/28 02:12:04;;;;;;;4.28;2.40;;;20.60;99.90;;;;;;4978095;28;20499;-67
2022/07/28 02:14:33;;;;;;;2.72;2.15;;;20.70;99.90;;;;;;4974410;28;20042;-66
2022/07/28 02:17:15;;;;;;;3.20;2.40;;;20.70;99.90;;;;;;4975580;28;20042;-66
2022/07/28 02:19:43;;;;;;;3.80;2.25;;;20.70;99.90;;;;;;4972699;28;20124;-66
2022/07/28 02:22:10;;;;;;;4.03;2.33;;;20.70;99.90;;;;;;4977814;28;20494;-67
2022/07/28 02:24:37;;;;;;;2.67;2.40;;;20.60;99.90;;;;;;4972997;28;20068;-67
2022/07/28 02:27:14;;;;;;;4.03;2.65;;;20.60;99.90;;;;;;4975045;28;20097;-67
2022/07/28 02:29:47;;;;;;;2.45;2.05;;;20.60;99.90;;;;;;4974017;28;20669;-67
2022/07/28 02:32:32;;;;;;;2.50;2.28;;;20.60;99.90;;;;;;4972451;28;20066;-67
2022/07/28 02:35:06;;;;;;;2.88;2.30;;;20.50;99.90;;;;;;4974316;28;20045;-66
2022/07/28 02:37:37;;;;;;;2.45;2.28;;;20.50;99.90;;;;;;4971831;28;20982;-67
2022/07/28 02:40:04;;;;;;;2.63;2.42;;;20.40;99.90;;;;;;4974923;28;20053;-67
2022/07/28 02:42:34;;;;;;;8.50;2.45;;;20.40;99.90;;;;;;4972261;28;20025;-67
2022/07/28 02:45:03;;;;;;;2.53;2.33;;;20.40;99.90;;;;;;4974719;28;20042;-66
2022/07/28 02:47:33;;;;;;;2.38;2.17;;;20.40;99.90;;;;;;4973358;28;20133;-67
2022/07/28 02:50:01;;;;;;;4.15;2.10;;;20.40;99.90;;;;;;4972145;28;20026;-67
2022/07/28 02:52:28;;;;;;;3.30;2.40;;;20.30;99.90;;;;;;4971988;28;20034;-67
2022/07/28 02:54:56;;;;;;;2.80;2.45;;;20.30;99.90;;;;;;4969812;28;20089;-67
2022/07/28 02:57:23;;;;;;;2.53;2.33;;;20.30;99.90;;;;;;4973045;28;20110;-67
2022/07/28 02:59:51;;;;;;;2.15;1.90;;;20.20;99.90;;;;;;4971096;28;20034;-67
2022/07/28 03:02:20;;;;;;;2.33;2.13;;;20.20;99.90;;;;;;4974344;28;20026;-66
2022/07/28 03:04:57;;;;;;;2.72;2.15;;;20.20;99.90;;;;;;4974525;28;20039;-67
2022/07/28 03:07:32;;;;;;;2.22;2.03;;;20.20;99.90;;;;;;4973005;28;20042;-67
2022/07/28 03:09:58;;;;;;;4.03;2.30;;;20.30;99.90;;;;;;4979835;28;20895;-67
2022/07/28 03:12:25;;;;;;;2.83;2.10;;;20.30;99.90;;;;;;4979671;28;20076;-66
2022/07/28 03:14:51;;;;;;;3.13;2.25;;;20.30;99.90;;;;;;4978719;28;20498;-67
2022/07/28 03:17:18;;;;;;;2.63;2.42;;;20.20;99.90;;;;;;4983480;28;20038;-67
2022/07/28 03:19:43;;;;;;;3.10;2.30;;;20.20;99.90;;;;;;4984963;28;20042;-67
2022/07/28 03:22:09;;;;;;;2.70;2.50;;;20.20;99.90;;;;;;4985816;28;20029;-67
2022/07/28 03:24:41;;;;;;;3.20;2.80;;;20.20;99.90;;;;;;4979286;28;20066;-67
2022/07/28 03:27:19;;;;;;;3.20;2.58;;;20.20;99.90;;;;;;4980363;28;20026;-66
2022/07/28 03:29:51;;;;;;;3.30;2.55;;;20.20;99.90;;;;;;4980534;28;20045;-67
2022/07/28 03:32:19;;;;;;;2.88;2.67;;;20.20;99.90;;;;;;4974966;28;20061;-67
2022/07/28 03:34:46;;;;;;;2.92;2.70;;;20.10;99.90;;;;;;4978505;28;20800;-67
2022/07/28 03:37:13;;;;;;;2.55;2.10;;;20.10;99.90;;;;;;4986546;28;20126;-67
2022/07/28 03:39:47;;;;;;;2.42;2.22;;;20.20;99.90;;;;;;4979011;28;20045;-67
2022/07/28 03:42:18;;;;;;;2.63;2.17;;;20.20;99.90;;;;;;4980107;28;20047;-66
2022/07/28 03:44:47;;;;;;;2.40;2.20;;;20.20;99.90;;;;;;4979242;28;20233;-67
2022/07/28 03:47:14;;;;;;;2.60;2.40;;;20.20;99.90;;;;;;4985123;28;20689;-66
2022/07/28 03:49:40;;;;;;;2.85;2.50;;;20.10;99.90;;;;;;4973164;28;20353;-66
2022/07/28 03:52:06;;;;;;;3.45;2.45;;;20.10;99.90;;;;;;4977953;28;20045;-67
2022/07/28 03:54:31;;;;;;;2.55;2.35;;;20.10;99.90;;;;;;4977332;28;20909;-66
2022/07/28 03:56:57;;;;;;;2.50;2.30;;;20.20;99.90;;;;;;4984528;28;20101;-66
2022/07/28 03:59:23;;;;;;;3.50;2.28;;;20.20;99.90;;;;;;4979116;28;20038;-66
2022/07/28 04:01:49;;;;;;;2.72;2.50;;;20.20;99.90;;;;;;4978274;28;20038;-67
2022/07/28 04:04:15;;;;;;;3.17;2.65;;;20.20;99.90;;;;;;4974451;28;20116;-66
2022/07/28 04:06:40;;;;;;;2.80;2.40;;;20.30;99.90;;;;;;4979565;28;20049;-67
2022/07/28 04:09:06;;;;;;;4.15;2.45;;;20.30;99.90;;;;;;4977825;28;20059;-67
2022/07/28 04:11:31;;;;;;;2.97;2.40;;;20.40;99.90;;;;;;4977597;28;20042;-66
2022/07/28 04:13:57;;;;;;;2.83;2.25;;;20.40;99.90;;;;;;4974464;28;20056;-67
2022/07/28 04:16:23;;;;;;;3.78;2.67;;;20.40;99.90;;;;;;4979746;28;20126;-67
2022/07/28 04:18:49;;;;;;;3.35;2.60;;;20.40;99.90;;;;;;4975409;28;20125;-66
2022/07/28 04:21:15;;;;;;;2.60;2.40;;;20.40;99.90;;;;;;4977450;28;20058;-67
2022/07/28 04:23:40;;;;;;;2.70;2.50;;;20.40;99.90;;;;;;4973264;28;20468;-67
2022/07/28 04:26:06;;;;;;;2.15;2.05;;;20.40;99.90;;;;;;4978619;28;20120;-67
2022/07/28 04:28:32;;;;;;;2.67;2.40;;;20.40;99.90;;;;;;4980280;28;20408;-67
2022/07/28 04:30:58;;;;;;;14.85;2.72;;;20.40;99.90;;;;;;4976199;28;20061;-67
2022/07/28 04:33:24;;;;;;;5.90;2.67;;;20.40;99.90;;;;;;4977031;28;20026;-66
2022/07/28 04:35:51;;;;;;;2.63;2.42;;;20.40;99.90;;;;;;4976993;28;20053;-67
2022/07/28 04:38:19;;;;;;;3.58;2.35;;;20.30;99.90;;;;;;4980279;28;20042;-67
2022/07/28 04:40:48;;;;;;;2.70;2.50;;;20.40;99.90;;;;;;4978913;28;20061;-67
2022/07/28 04:43:14;;;;;;;2.70;2.50;;;20.40;99.90;;;;;;4975979;28;20035;-67
2022/07/28 04:45:40;;;;;;;3.10;2.78;;;20.40;99.90;;;;;;4971423;28;20042;-67
2022/07/28 04:48:05;;;;;;;2.53;2.33;;;20.50;99.90;;;;;;4975712;28;20046;-66
2022/07/28 04:50:32;;;;;;;3.40;2.38;;;20.60;99.90;;;;;;4974675;28;20038;-66
2022/07/28 04:52:58;;;;;;;2.53;2.33;;;20.70;99.90;;;;;;4963591;28;20042;-66
2022/07/28 04:55:24;;;;;;;4.32;2.50;;;20.80;99.90;;;;;;4968409;28;20039;-66
2022/07/28 04:57:50;;;;;;;2.70;2.50;;;20.90;99.90;;;;;;4977913;28;20045;-66
2022/07/28 05:00:16;;;;;;;3.92;2.67;;;21.10;99.90;;;;;;4976313;28;20033;-67
2022/07/28 05:02:43;;;;;;;4.05;2.80;;;21.20;99.90;;;;;;4979544;28;20049;-68
2022/07/28 05:05:09;;;;;;;11.02;3.17;;;21.30;99.90;;;;;;4958124;28;20039;-67
2022/07/28 05:07:37;;;;;;;6.00;2.92;;;21.50;99.90;;;;;;4972335;28;20050;-67
2022/07/28 05:10:04;;;;;;;3.97;2.63;;;21.60;99.90;;;;;;4957720;28;20522;-67
2022/07/28 05:12:30;;;;;;;6.63;2.70;;;21.70;99.90;;;;;;4978140;28;20080;-68
2022/07/28 05:14:55;;;;;;;3.60;2.80;;;21.90;99.90;;;;;;4973179;28;20120;-67
2022/07/28 05:17:21;;;;;;;3.80;2.92;;;22.00;99.90;;;;;;4977456;28;20579;-67
2022/07/28 05:19:46;;;;;;;5.38;2.83;;;22.10;99.90;;;;;;4974042;28;20109;-67
2022/07/28 05:22:12;;;;;;;8.40;3.17;;;22.20;99.90;;;;;;4972389;28;20045;-67
2022/07/28 05:24:38;;;;;;;3.60;2.83;;;22.30;99.90;;;;;;4977079;28;20026;-67
2022/07/28 05:27:03;;;;;;;3.22;2.63;;;22.40;99.90;;;;;;4974906;28;20034;-67
2022/07/28 05:29:29;;;;;;;5.10;2.72;;;22.60;99.40;;;;;;4972088;28;20045;-66
2022/07/28 05:31:55;;;;;;;4.80;2.72;;;22.60;98.90;;;;;;4970010;28;20062;-66
2022/07/28 05:34:20;;;;;;;2.58;2.30;;;22.70;98.30;;;;;;4967412;28;20034;-67
2022/07/28 05:36:46;;;;;;;3.00;2.80;;;22.70;98.20;;;;;;4951504;28;20058;-68
2022/07/28 05:39:12;;;;;;;3.03;2.55;;;22.80;98.20;;;;;;4972449;28;20113;-67
2022/07/28 05:41:37;;;;;;;3.80;2.75;;;22.80;97.80;;;;;;4970343;28;20054;-67
2022/07/28 05:44:03;;;;;;;2.92;2.65;;;22.90;97.90;;;;;;4976603;28;20034;-68
2022/07/28 05:46:29;;;;;;;3.67;2.47;;;23.00;97.30;;;;;;4974760;28;20042;-68
2022/07/28 05:48:54;;;;;;;2.60;2.20;;;23.10;97.10;;;;;;4978601;28;20092;-67
2022/07/28 05:51:20;;;;;;;4.25;2.40;;;23.20;97.00;;;;;;4976103;28;20046;-68
2022/07/28 05:53:46;;;;;;;2.97;2.70;;;23.30;96.60;;;;;;4944924;28;20034;-68
2022/07/28 05:56:12;;;;;;;3.25;2.90;;;23.40;96.10;;;;;;4979733;28;20061;-67
2022/07/28 05:58:37;;;;;;;6.45;2.70;;;23.30;96.00;;;;;;4977395;28;20088;-67
2022/07/28 06:01:03;;;;;;;6.63;2.50;;;23.30;96.30;;;;;;4979184;28;20054;-68
2022/07/28 06:03:31;;;;;;;3.40;2.75;;;23.40;96.10;;;;;;4979445;28;20376;-68
2022/07/28 06:05:56;;;;;;;3.60;2.40;;;23.60;96.30;;;;;;4974140;28;20113;-67
2022/07/28 06:08:25;;;;;;;10.75;2.90;;;23.70;95.60;;;;;;4978959;28;20041;-67
2022/07/28 06:10:57;;;;;;;2.50;2.30;;;23.70;95.20;;;;;;4972700;28;20050;-67
2022/07/28 06:13:23;;;;;;;7.28;2.33;;;23.70;94.80;;;;;;4979685;28;20078;-67
2022/07/28 06:15:51;;;;;;;4.57;2.70;;;23.70;94.40;;;;;;4971068;28;20065;-67
2022/07/28 06:18:17;;;;;;;3.92;2.70;;;23.80;94.70;;;;;;4972451;28;20487;-67
2022/07/28 06:20:44;;;;;;;2.42;2.22;;;23.90;94.70;;;;;;4973379;28;20026;-67
2022/07/28 06:23:10;;;;;;;3.13;2.58;;;24.00;94.50;;;;;;4972021;28;20042;-67
2022/07/28 06:25:36;;;;;;;2.38;2.17;;;23.90;93.80;;;;;;4972003;28;20432;-67
2022/07/28 06:28:01;;;;;;;2.38;2.17;;;24.00;94.10;;;;;;4967931;28;20034;-67
2022/07/28 06:30:28;;;;;;;9.20;2.88;;;24.10;93.40;;;;;;4961141;28;20129;-67
2022/07/28 06:32:54;;;;;;;3.15;2.85;;;24.20;93.70;;;;;;4978395;28;20039;-67
2022/07/28 06:35:20;;;;;;;3.03;2.65;;;24.30;94.20;;;;;;4980509;28;20042;-67
2022/07/28 06:37:47;;;;;;;3.15;2.70;;;24.40;92.50;;;;;;4977006;28;20041;-67
2022/07/28 06:40:15;;;;;;;3.10;2.80;;;24.50;92.80;;;;;;4975258;28;20128;-67
2022/07/28 06:42:42;;;;;;;3.63;2.55;;;24.60;92.70;;;;;;4975212;28;20034;-67
2022/07/28 06:45:09;;;;;;;2.63;2.28;;;24.70;92.10;;;;;;4970756;28;20041;-67
2022/07/28 06:47:34;;;;;;;2.45;2.25;;;24.80;92.20;;;;;;4971486;28;20070;-67
2022/07/28 06:50:00;;;;;;;11.57;2.60;;;25.00;92.40;;;;;;4975342;28;20544;-67
2022/07/28 06:52:26;;;;;;;3.10;2.25;;;25.10;91.30;;;;;;4976065;28;20567;-67
2022/07/28 06:54:52;;;;;;;2.28;1.98;;;24.90;91.30;;;;;;4975398;28;20049;-67
2022/07/28 06:57:21;;;;;;;3.25;2.85;;;25.00;91.40;;;;;;4975573;28;20030;-67
2022/07/28 06:59:48;;;;;;;2.85;2.28;;;25.10;90.50;;;;;;4972795;28;20052;-66
2022/07/28 07:02:15;;;;;;;3.35;2.25;;;25.10;90.50;;;;;;4979119;28;20113;-68
2022/07/28 07:04:41;;;;;;;3.45;2.17;;;25.10;91.40;;;;;;4970670;28;20463;-66
2022/07/28 07:07:07;;;;;;;2.92;2.17;;;25.20;90.40;;;;;;4982345;28;20575;-66
2022/07/28 07:09:32;;;;;;;4.03;2.63;;;25.30;89.50;;;;;;4977601;28;20566;-67
2022/07/28 07:11:58;;;;;;;4.05;2.47;;;25.20;89.20;;;;;;4973616;28;20106;-66
2022/07/28 07:14:24;;;;;;;3.05;2.40;;;25.10;89.30;;;;;;4974228;28;20118;-66
2022/07/28 07:16:50;;;;;;;5.40;2.50;;;25.10;90.00;;;;;;4973441;28;20041;-66
2022/07/28 07:19:16;;;;;;;2.85;2.35;;;25.10;89.80;;;;;;4966960;28;20668;-66
2022/07/28 07:21:42;;;;;;;3.90;2.58;;;25.10;90.50;;;;;;4971215;28;20133;-66
2022/07/28 07:24:10;;;;;;;5.10;2.67;;;25.20;90.10;;;;;;4980022;28;20518;-67
2022/07/28 07:26:36;;;;;;;4.45;2.47;;;25.30;89.00;;;;;;4966325;28;20943;-67
2022/07/28 07:29:03;;;;;;;3.13;2.30;;;25.40;88.50;;;;;;4975252;28;20043;-67
2022/07/28 07:31:28;;;;;;;2.47;2.10;;;25.60;86.20;;;;;;4978620;28;20054;-67
2022/07/28 07:33:54;;;;;;;3.15;2.15;;;25.60;86.00;;;;;;4973373;28;20113;-69
2022/07/28 07:36:20;;;;;;;2.67;2.25;;;25.60;85.80;;;;;;4966838;28;20038;-67
2022/07/28 07:38:46;;;;;;;2.35;2.20;;;25.70;86.10;;;;;;4975561;28;20035;-67
2022/07/28 07:41:12;;;;;;;2.83;2.50;;;25.80;86.20;;;;;;4980543;28;20046;-68
2022/07/28 07:43:37;;;;;;;3.08;2.30;;;26.00;85.30;;;;;;4968561;28;20058;-67
2022/07/28 07:46:05;;;;;;;2.75;2.28;;;26.20;83.20;;;;;;4980139;28;20045;-67
2022/07/28 07:48:31;;;;;;;2.67;2.13;;;26.30;82.80;;;;;;4977773;28;20033;-67
2022/07/28 07:50:56;;;;;;;2.90;2.17;;;26.30;81.40;;;;;;4976207;28;20822;-67
2022/07/28 07:53:23;;;;;;;2.05;1.85;;;26.40;82.30;;;;;;4973042;28;20035;-66
2022/07/28 07:55:49;;;;;;;2.72;2.10;;;26.40;80.50;;;;;;4965919;28;20039;-67
2022/07/28 07:58:15;;;;;;;4.60;2.42;;;26.50;79.90;;;;;;4973188;28;20109;-67
2022/07/28 08:00:41;;;;;;;6.65;2.25;;;26.50;80.90;;;;;;4971646;28;20046;-66
2022/07/28 08:03:06;;;;;;;3.55;2.20;;;26.60;79.80;;;;;;4971213;28;20051;-68
2022/07/28 08:05:32;;;;;;;3.90;1.98;;;26.70;81.40;;;;;;4975614;28;20041;-67
2022/07/28 08:07:57;;;;;;;1.85;1.75;;;26.90;80.00;;;;;;4972112;28;20053;-67
2022/07/28 08:10:23;;;;;;;2.50;2.08;;;27.00;79.60;;;;;;4977966;28;20042;-67
2022/07/28 08:12:49;;;;;;;2.60;2.35;;;27.10;78.70;;;;;;4972745;28;20077;-73
2022/07/28 08:15:14;;;;;;;2.53;1.80;;;27.20;77.70;;;;;;4970732;28;20543;-72
2022/07/28 08:17:40;;;;;;;2.20;2.00;;;27.20;76.60;;;;;;4970835;28;20054;-73
2022/07/28 08:20:06;;;;;;;2.75;1.95;;;27.30;76.50;;;;;;4975286;28;20023;-73
2022/07/28 08:22:32;;;;;;;1.90;1.80;;;27.30;74.50;;;;;;4975132;28;20031;-72
2022/07/28 08:25:01;;;;;;;2.30;2.10;;;27.30;75.20;;;;;;4980229;28;20053;-74
2022/07/28 08:27:27;;;;;;;1.80;1.70;;;27.30;75.20;;;;;;4973456;28;20133;-74
2022/07/28 08:29:53;;;;;;;4.97;1.80;;;27.30;72.70;;;;;;4966687;28;20066;-73
2022/07/28 08:32:18;;;;;;;2.88;2.08;;;27.20;73.30;;;;;;4976454;28;20571;-72
2022/07/28 08:34:44;;;;;;;2.20;1.70;;;27.20;72.50;;;;;;4974730;28;20042;-72
2022/07/28 08:37:09;;;;;;;4.43;1.70;;;27.30;74.00;;;;;;4972488;28;20097;-73
2022/07/28 08:39:35;;;;;;;2.13;1.90;;;27.40;75.20;;;;;;4974705;28;20038;-72
2022/07/28 08:42:32;;;;;;;1.98;1.77;;;27.70;74.70;;;;;;4976166;28;20037;-72
2022/07/28 08:45:05;;;;;;;2.10;1.90;;;27.80;72.30;;;;;;4952267;28;20035;-71
2022/07/28 08:47:33;;;;;;;2.08;1.58;;;27.80;70.90;;;;;;4977503;28;20040;-71
2022/07/28 08:49:59;;;;;;;1.88;1.50;;;27.80;69.60;;;;;;4971396;28;20116;-72
2022/07/28 08:52:30;;;;;;;3.33;1.80;;;27.90;72.20;;;;;;4968675;28;20053;-72
2022/07/28 08:54:56;;;;;;;1.60;1.50;;;28.00;69.10;;;;;;4973214;28;20128;-72
2022/07/28 08:57:29;;;;;;;2.30;1.35;;;28.00;70.40;;;;;;4972686;28;20062;-73
2022/07/28 08:59:56;;;;;;;1.90;1.75;;;28.10;67.20;;;;;;4975239;28;20696;-73
2022/07/28 09:02:25;;;;;;;4.97;1.40;;;28.10;67.20;;;;;;4970705;28;20186;-72
2022/07/28 09:04:53;;;;;;;1.60;1.50;;;28.10;65.40;;;;;;4971301;28;20031;-72
2022/07/28 09:07:19;;;;;;;2.53;1.75;;;28.10;66.30;;;;;;4971333;28;20033;-73
2022/07/28 09:09:48;;;;;;;1.67;1.58;;;28.10;63.90;;;;;;4972455;28;20586;-72
2022/07/28 09:12:13;;;;;;;1.42;1.33;;;28.10;63.10;;;;;;4978939;28;20050;-75
2022/07/28 09:14:39;;;;;;;1.48;1.35;;;28.10;62.50;;;;;;4969340;28;20125;-72
2022/07/28 09:17:05;;;;;;;1.77;1.40;;;28.20;62.90;;;;;;4975782;28;20047;-73
2022/07/28 09:19:31;;;;;;;1.40;1.30;;;28.30;62.40;;;;;;4973624;28;20039;-72
2022/07/28 09:21:57;;;;;;;2.03;1.60;;;28.30;60.80;;;;;;4973987;28;20793;-73
2022/07/28 09:24:38;;;;;;;2.85;1.33;;;28.30;62.10;;;;;;4978306;28;20042;-73
2022/07/28 09:27:06;;;;;;;1.17;1.08;;;28.40;61.40;;;;;;4973833;28;20435;-73
2022/07/28 09:29:33;;;;;;;1.20;1.10;;;28.50;60.30;;;;;;4968408;28;20034;-72
2022/07/28 09:32:00;;;;;;;1.83;1.40;;;28.50;59.50;;;;;;4971881;28;20561;-73
2022/07/28 09:34:25;;;;;;;1.63;1.30;;;28.40;58.70;;;;;;4958986;28;20236;-72
2022/07/28 09:36:51;;;;;;;7.10;1.48;;;28.50;58.10;;;;;;4970728;28;20072;-73
2022/07/28 09:39:31;;;;;;;1.60;1.20;;;28.60;58.20;;;;;;4981843;28;20100;-71
2022/07/28 09:41:57;;;;;;;1.50;1.33;;;28.60;57.50;;;;;;4974590;28;20319;-75
2022/07/28 09:44:25;;;;;;;1.63;1.10;;;28.60;57.70;;;;;;4966019;28;20052;-74
2022/07/28 09:46:51;;;;;;;2.65;1.20;;;28.60;57.40;;;;;;4969134;28;20042;-74
2022/07/28 09:49:17;;;;;;;1.92;1.48;;;28.70;57.00;;;;;;4971534;28;20121;-72
2022/07/28 09:51:59;;;;;;;2.25;1.25;;;28.70;57.40;;;;;;4969678;28;20046;-70
2022/07/28 09:54:24;;;;;;;2.03;1.40;;;28.80;56.80;;;;;;4977710;28;20214;-74
2022/07/28 09:56:50;;;;;;;1.30;1.20;;;28.90;56.40;;;;;;4978524;28;20045;-74
2022/07/28 09:59:17;;;;;;;1.30;1.20;;;28.90;55.70;;;;;;4976828;28;20145;-72
2022/07/28 10:02:01;;;;;;;3.50;1.50;;;28.80;56.10;;;;;;4978311;28;20042;-72
2022/07/28 10:04:36;;;;;;;2.45;1.40;;;28.80;57.30;;;;;;4974897;28;20033;-73
2022/07/28 10:07:12;;;;;;;1.40;1.30;;;28.90;56.40;;;;;;4973826;28;20164;-73
2022/07/28 10:09:39;;;;;;;3.50;1.45;;;29.00;55.60;;;;;;4991757;28;20057;-73
2022/07/28 10:12:19;;;;;;;1.63;1.35;;;29.00;56.30;;;;;;4979929;28;20716;-74
2022/07/28 10:14:47;;;;;;;1.20;1.20;;;29.00;54.90;;;;;;4993714;28;20050;-73
2022/07/28 10:17:28;;;;;;;1.23;1.02;;;29.00;56.00;;;;;;4993440;28;20066;-73
2022/07/28 10:19:59;;;;;;;2.30;1.17;;;29.10;54.20;;;;;;4994998;28;20561;-74
2022/07/28 10:22:31;;;;;;;1.55;1.40;;;29.20;56.50;;;;;;4999024;28;20392;-73
2022/07/28 10:25:00;;;;;;;1.85;1.20;;;29.40;53.90;;;;;;4997448;28;20046;-72
2022/07/28 10:27:27;;;;;;;1.95;1.08;;;29.40;53.40;;;;;;4994172;28;20530;-73
2022/07/28 10:30:04;;;;;;;1.63;1.17;;;29.40;53.30;;;;;;4998042;28;20037;-74
2022/07/28 10:32:40;;;;;;;1.58;1.45;;;29.40;53.40;;;;;;4995666;28;20426;-72
2022/07/28 10:35:07;;;;;;;1.95;1.13;;;29.50;54.00;;;;;;4998146;28;20731;-72
2022/07/28 10:37:44;;;;;;;2.30;1.30;;;29.50;54.50;;;;;;4996025;28;20054;-73
2022/07/28 10:40:12;;;;;;;11.32;1.42;;;29.60;52.80;;;;;;4998263;28;20787;-73
2022/07/28 10:42:42;;;;;;;4.43;1.27;;;29.60;53.70;;;;;;4994452;28;20029;-73
2022/07/28 10:45:12;;;;;;;1.48;1.27;;;29.80;54.00;;;;;;4995552;28;20112;-73
2022/07/28 10:47:38;;;;;;;3.33;1.33;;;29.90;53.50;;;;;;5002897;28;20040;-73
2022/07/28 10:50:04;;;;;;;1.48;1.20;;;29.80;53.50;;;;;;4995214;28;20407;-69
2022/07/28 10:52:31;;;;;;;1.75;1.25;;;29.80;54.00;;;;;;4992181;28;20045;-73
2022/07/28 10:55:03;;;;;;;1.42;1.30;;;29.90;53.20;;;;;;4972332;28;20044;-73
2022/07/28 10:57:30;;;;;;;1.25;1.15;;;29.80;53.40;;;;;;4999747;28;20146;-71
2022/07/28 11:00:09;;;;;;;1.30;1.15;;;29.70;52.70;;;;;;5000435;28;20589;-72
2022/07/28 11:02:49;;;;;;;1.67;1.58;;;29.50;52.90;;;;;;5001224;28;20041;-72
2022/07/28 11:05:33;;;;;;;2.10;1.48;;;29.50;55.40;;;;;;4999226;28;20117;-66
2022/07/28 11:08:30;;;;;;;2.03;1.48;;;29.50;56.30;;;;;;4996721;28;20058;-66
2022/07/28 11:10:56;;;;;;;2.28;1.40;;;29.40;57.00;;;;;;4981296;28;20077;-66
2022/07/28 11:13:34;;;;;;;3.63;1.60;;;29.30;58.00;;;;;;4980207;28;20629;-66
2022/07/28 11:16:14;;;;;;;1.70;1.33;;;29.20;57.60;;;;;;4972141;28;20022;-66
2022/07/28 11:19:02;;;;;;;3.60;1.33;;;29.10;57.30;;;;;;4983157;28;20053;-65
2022/07/28 11:21:27;;;;;;;1.77;1.33;;;29.00;57.00;;;;;;4983552;28;20111;-66
2022/07/28 11:23:56;;;;;;;1.77;1.58;;;28.90;57.00;;;;;;4981138;28;20426;-66
2022/07/28 11:26:22;;;;;;;1.60;1.30;;;28.90;56.90;;;;;;4976980;28;20045;-66
2022/07/28 11:28:59;;;;;;;1.40;1.30;;;28.80;57.30;;;;;;4984978;28;20042;-66
2022/07/28 11:31:43;;;;;;;2.45;1.30;;;28.80;57.30;;;;;;4981870;28;20077;-66
2022/07/28 11:34:20;;;;;;;2.15;1.30;;;28.80;57.00;;;;;;4976587;28;20038;-66
2022/07/28 11:37:06;;;;;;;1.27;1.17;;;28.80;56.70;;;;;;4975954;28;20177;-66
2022/07/28 11:39:37;;;;;;;2.55;1.80;;;28.80;55.90;;;;;;4973441;28;20054;-66
2022/07/28 11:42:24;;;;;;;4.22;1.45;;;28.70;55.60;;;;;;4978980;28;20038;-66
2022/07/28 11:44:50;;;;;;;3.97;1.10;;;28.70;56.10;;;;;;4972442;28;20038;-72
2022/07/28 11:47:18;;;;;;;10.52;1.70;;;28.60;56.70;;;;;;4975710;28;20043;-72
2022/07/28 11:49:45;;;;;;;1.70;1.42;;;28.60;56.60;;;;;;4976802;28;20018;-71
2022/07/28 11:52:14;;;;;;;3.90;1.25;;;28.70;59.00;;;;;;4978581;28;20125;-71
2022/07/28 11:54:41;;;;;;;3.30;1.40;;;28.60;58.00;;;;;;4977128;28;20031;-72
2022/07/28 11:57:10;;;;;;;1.40;1.25;;;28.60;58.10;;;;;;4972641;28;20035;-71
2022/07/28 11:59:47;;;;;;;1.45;1.20;;;28.50;56.80;;;;;;4957112;28;23553;-71
2022/07/28 12:02:22;;;;;;;2.05;1.30;;;28.50;56.60;;;;;;4972270;28;20045;-71
2022/07/28 12:05:13;;;;;;;2.00;1.10;;;28.50;58.00;;;;;;4976031;28;20520;-71
2022/07/28 12:07:49;;;;;;;2.38;1.30;;;28.60;57.40;;;;;;4979121;28;20047;-70
2022/07/28 12:10:29;;;;;;;1.15;1.15;;;28.60;56.50;;;;;;4977095;28;20038;-72
2022/07/28 12:12:57;;;;;;;1.35;1.25;;;28.60;56.80;;;;;;4972981;28;20744;-71
2022/07/28 12:15:23;;;;;;;1.75;1.10;;;28.50;56.70;;;;;;4979668;28;20042;-71
2022/07/28 12:17:50;;;;;;;5.97;1.45;;;28.50;56.20;;;;;;4972597;28;20031;-72
2022/07/28 12:20:17;;;;;;;1.90;1.33;;;28.50;57.90;;;;;;4966860;28;20027;-70
2022/07/28 12:23:09;;;;;;;1.50;1.40;;;28.40;58.50;;;;;;4975393;28;20109;-70
2022/07/28 12:25:43;;;;;;;2.30;1.50;;;28.30;58.70;;;;;;4981613;28;20778;-71
2022/07/28 12:28:16;;;;;;;2.65;1.40;;;28.30;59.70;;;;;;4977548;28;20373;-70
2022/07/28 12:30:42;;;;;;;2.78;1.08;;;28.40;60.20;;;;;;4972028;28;20054;-71
2022/07/28 12:33:18;;;;;;;1.02;1.02;;;28.50;57.20;;;;;;4974621;28;20867;-71
2022/07/28 12:35:44;;;;;;;2.50;1.00;;;28.60;55.70;;;;;;4974581;28;20645;-71
2022/07/28 12:38:10;;;;;;;1.65;1.50;;;28.60;56.80;;;;;;4976981;28;20445;-71
2022/07/28 12:40:38;;;;;;;2.78;1.40;;;28.50;57.40;;;;;;4975415;28;20042;-71
2022/07/28 12:43:04;;;;;;;2.03;1.30;;;28.50;57.70;;;;;;4979019;28;20022;-71
2022/07/28 12:45:32;;;;;;;2.45;1.35;;;28.40;57.50;;;;;;4974749;28;20034;-72
2022/07/28 12:48:05;;;;;;;3.80;1.50;;;28.40;59.60;;;;;;4991776;28;20334;-71
2022/07/28 12:50:37;;;;;;;1.73;1.20;;;28.50;59.20;;;;;;4974475;28;20041;-71
2022/07/28 12:53:07;;;;;;;;;;;28.40;59.20;;;;;;4965874;28;20077;-71
2022/07/28 12:55:33;;;;;;;1.45;1.35;;;28.30;59.70;;;;;;4977504;28;20397;-71
2022/07/28 12:57:59;;;;;;;1.27;1.17;;;28.30;60.20;;;;;;4971289;28;20041;-71
2022/07/28 13:00:32;;;;;;;2.22;1.25;;;28.40;61.40;;;;;;4973928;28;20046;-71